Terminal Aerodrome Forecast
Issued by NWS Tampa Bay Area, FL

Home | Current Version | Previous Version | Text Only | Print | Product List | Glossary On
Versions: 1 2 3 4 5 6 7 8 9 10 11 12 13
000
FTUS42 KTBW 311100
TAFSRQ
TAF
KSRQ 311121Z 3112/0112 36006KT P6SM FEW030 SCT080
     FM311400 33008KT P6SM SCT040
     FM311700 32011KT P6SM FEW040
     FM312300 31007KT P6SM SKC
     FM010900 33013KT P6SM SCT040=

USA.gov is the U.S. government's official web portal to all federal, state and local government web resources and services.